Time;durP1;ratioP1;P1;durP2;ratioP2;P2;SDS_P1;SDS_P2;PMS_P1;PMS_P2;Temp;Humidity;BMP_temperature;BMP_pressure;BME280_temperature;BME280_humidity;BME280_pressure;Samples;Min_cycle;Max_cycle;Signal;HPM_P1;HPM_P2
2022/12/07 00:01:46;;;;;;;4.32;3.10;;;;;;;3.71;100.00;98592.03;5106841;28;20052;-84
2022/12/07 00:04:30;;;;;;;4.45;2.97;;;;;;;3.74;100.00;98588.50;5109079;28;20514;-84
2022/12/07 00:07:14;;;;;;;3.65;2.65;;;;;;;3.73;100.00;98591.97;5106768;28;20065;-83
2022/12/07 00:09:59;;;;;;;3.90;2.60;;;;;;;3.78;100.00;98590.88;5106568;27;20145;-82
2022/12/07 00:12:43;;;;;;;3.67;2.60;;;;;;;3.78;100.00;98590.03;5103936;28;20047;-83
2022/12/07 00:15:29;;;;;;;4.82;2.90;;;;;;;3.72;100.00;98590.28;5072049;28;20051;-84
2022/12/07 00:18:14;;;;;;;3.78;2.75;;;;;;;3.76;100.00;98584.91;5093219;28;20043;-84
2022/12/07 00:21:01;;;;;;;4.95;3.20;;;;;;;3.76;100.00;98584.91;5110211;28;20184;-82
2022/12/07 00:23:47;;;;;;;5.43;3.42;;;;;;;3.60;100.00;98589.06;5093293;28;20055;-84
2022/12/07 00:26:38;;;;;;;5.22;3.40;;;;;;;3.48;100.00;98580.09;5106952;28;20126;-84
2022/12/07 00:29:23;;;;;;;5.15;2.97;;;;;;;3.45;100.00;98584.47;5074986;28;20077;-82
2022/12/07 00:32:08;;;;;;;4.18;3.08;;;;;;;3.43;100.00;98580.25;5108238;28;20137;-84
2022/12/07 00:34:52;;;;;;;4.57;3.13;;;;;;;3.44;100.00;98587.97;5109913;28;20118;-83
2022/12/07 00:37:37;;;;;;;4.38;2.97;;;;;;;3.43;100.00;98581.09;5091436;28;20039;-86
2022/12/07 00:40:22;;;;;;;4.70;3.33;;;;;;;3.59;100.00;98588.22;5095141;28;20108;-83
2022/12/07 00:43:07;;;;;;;4.78;3.63;;;;;;;3.52;100.00;98585.06;5107249;28;20049;-82
2022/12/07 00:45:52;;;;;;;6.25;4.10;;;;;;;3.44;100.00;98582.78;5092481;28;20588;-86
2022/12/07 00:48:37;;;;;;;4.63;3.03;;;;;;;3.44;100.00;98574.19;5089585;28;20035;-84
2022/12/07 00:51:24;;;;;;;5.80;3.90;;;;;;;3.45;100.00;98571.53;5107035;28;20060;-83
2022/12/07 00:54:08;;;;;;;6.32;4.13;;;;;;;3.44;100.00;98572.41;5090779;28;20486;-84
2022/12/07 00:56:54;;;;;;;4.47;3.60;;;;;;;3.23;100.00;98574.19;5092622;28;20437;-83
2022/12/07 00:59:39;;;;;;;6.70;4.47;;;;;;;3.27;100.00;98578.31;5107390;28;20451;-83
2022/12/07 01:02:23;;;;;;;6.40;4.22;;;;;;;3.29;100.00;98573.06;5090467;28;20039;-83
2022/12/07 01:05:08;;;;;;;5.30;3.25;;;;;;;3.41;100.00;98574.31;5107962;28;20043;-84
2022/12/07 01:07:53;;;;;;;7.30;4.50;;;;;;;3.44;100.00;98580.19;5094572;28;20036;-82
2022/12/07 01:10:37;;;;;;;9.10;5.28;;;;;;;3.40;100.00;98586.41;5110123;27;20199;-82
2022/12/07 01:13:22;;;;;;;7.65;5.35;;;;;;;3.32;100.00;98578.97;5108804;28;20032;-83
2022/12/07 01:16:08;;;;;;;6.55;4.25;;;;;;;3.38;100.00;98580.44;5106536;28;20039;-82
2022/12/07 01:18:55;;;;;;;7.00;4.10;;;;;;;3.36;100.00;98576.25;5105433;28;20032;-83
2022/12/07 01:21:40;;;;;;;7.00;4.55;;;;;;;3.39;100.00;98576.97;5086784;28;20477;-83
2022/12/07 01:24:25;;;;;;;7.78;4.88;;;;;;;3.45;100.00;98583.63;5105282;28;20477;-83
2022/12/07 01:27:10;;;;;;;9.57;5.32;;;;;;;3.43;100.00;98575.91;5107711;28;20067;-85
2022/12/07 01:29:55;;;;;;;8.10;5.43;;;;;;;3.42;100.00;98581.16;5108033;28;20438;-84
2022/12/07 01:32:39;;;;;;;7.85;5.43;;;;;;;3.42;100.00;98579.44;5106887;28;20087;-83
2022/12/07 01:35:24;;;;;;;8.10;5.20;;;;;;;3.41;100.00;98579.50;5109042;27;20032;-84
2022/12/07 01:38:08;;;;;;;8.63;5.38;;;;;;;3.36;100.00;98573.66;5106964;28;20084;-84
2022/12/07 01:40:55;;;;;;;7.78;5.47;;;;;;;3.35;100.00;98575.41;5106580;28;20048;-84
2022/12/07 01:44:24;;;;;;;8.75;5.35;;;;;;;3.34;100.00;98578.91;5107889;28;20067;-83
2022/12/07 01:47:09;;;;;;;8.68;5.07;;;;;;;3.43;100.00;98575.06;5104441;28;20440;-82
2022/12/07 01:49:54;;;;;;;6.85;5.13;;;;;;;3.45;100.00;98571.53;5090906;28;20486;-83
2022/12/07 01:52:39;;;;;;;9.13;6.38;;;;;;;3.37;100.00;98567.56;5090701;28;20126;-80
2022/12/07 01:55:24;;;;;;;7.45;4.88;;;;;;;3.26;100.00;98566.28;5079358;28;20132;-83
2022/12/07 01:58:11;;;;;;;10.00;6.15;;;;;;;3.16;100.00;98563.22;5084401;28;20051;-82
2022/12/07 02:00:55;;;;;;;8.43;5.57;;;;;;;3.18;100.00;98558.00;5106330;28;20482;-83
2022/12/07 02:03:42;;;;;;;7.93;5.53;;;;;;;3.12;100.00;98553.06;5105588;28;20036;-82
2022/12/07 02:06:27;;;;;;;12.88;6.72;;;;;;;2.98;100.00;98549.28;5106373;28;20043;-83
2022/12/07 02:09:12;;;;;;;10.38;6.95;;;;;;;2.89;100.00;98545.31;5104465;28;20067;-83
2022/12/07 02:11:57;;;;;;;11.77;7.10;;;;;;;2.93;100.00;98546.03;5109362;28;20384;-83
2022/12/07 02:14:42;;;;;;;9.27;6.25;;;;;;;2.88;100.00;98542.78;5089144;28;20039;-83
2022/12/07 02:17:40;;;;;;;10.50;7.47;;;;;;;2.76;100.00;98547.56;5106696;28;20054;-84
2022/12/07 02:20:43;;;;;;;9.43;6.80;;;;;;;2.79;100.00;98541.44;5108161;28;20478;-84
2022/12/07 02:23:46;;;;;;;12.40;7.65;;;;;;;2.76;100.00;98537.22;5105234;28;20062;-85
2022/12/07 02:26:48;;;;;;;12.48;7.75;;;;;;;2.67;100.00;98541.03;5096515;28;20095;-82
2022/12/07 02:29:47;;;;;;;13.80;8.43;;;;;;;2.60;100.00;98534.38;5109334;28;20394;-85
2022/12/07 02:32:52;;;;;;;13.40;8.45;;;;;;;2.67;100.00;98533.25;5075778;28;20111;-84
2022/12/07 02:35:50;;;;;;;12.05;7.72;;;;;;;2.70;100.00;98540.91;5090374;28;20470;-84
2022/12/07 02:38:43;;;;;;;12.52;7.70;;;;;;;2.78;100.00;98548.34;5107699;28;20042;-82
2022/12/07 02:41:35;;;;;;;15.32;9.48;;;;;;;2.71;100.00;98541.72;5109000;28;20044;-82
2022/12/07 02:44:26;;;;;;;12.98;8.15;;;;;;;2.71;100.00;98546.88;5102262;28;20036;-82
2022/12/07 02:47:13;;;;;;;14.80;9.50;;;;;;;2.63;100.00;98554.97;5105434;28;20418;-84
2022/12/07 02:50:03;;;;;;;15.57;9.38;;;;;;;2.64;100.00;98546.31;5112727;28;20318;-81
2022/12/07 02:52:48;;;;;;;11.20;7.88;;;;;;;2.70;100.00;98545.22;5100976;28;20051;-80
2022/12/07 02:55:39;;;;;;;13.57;9.32;;;;;;;2.77;100.00;98546.66;5117653;28;20039;-79
2022/12/07 02:58:50;;;;;;;12.57;9.43;;;;;;;2.66;100.00;98548.84;5120748;28;20051;-80
2022/12/07 03:01:53;;;;;;;15.50;9.35;;;;;;;2.69;100.00;98540.97;5113946;28;20115;-82
2022/12/07 03:04:40;;;;;;;13.95;9.27;;;;;;;2.76;100.00;98544.16;5105773;28;20105;-84
2022/12/07 03:07:34;;;;;;;13.98;8.77;;;;;;;2.86;100.00;98547.22;5093461;28;20043;-83
2022/12/07 03:10:40;;;;;;;14.77;9.98;;;;;;;2.73;100.00;98545.09;5096658;28;20047;-84
2022/12/07 03:13:35;;;;;;;17.30;10.10;;;;;;;2.79;100.00;98546.63;5108247;28;20034;-84
2022/12/07 03:16:26;;;;;;;12.77;8.45;;;;;;;2.91;100.00;98540.06;5103718;28;20031;-84
2022/12/07 03:19:19;;;;;;;15.05;9.60;;;;;;;2.90;100.00;98547.03;5090915;28;20044;-83
2022/12/07 03:22:11;;;;;;;14.95;9.65;;;;;;;2.81;100.00;98544.78;5096434;28;20124;-82
2022/12/07 03:25:05;;;;;;;15.43;9.60;;;;;;;2.91;100.00;98545.25;5105480;28;20035;-82
2022/12/07 03:27:52;;;;;;;14.82;9.82;;;;;;;2.85;100.00;98555.84;5113631;28;20054;-83
2022/12/07 03:30:47;;;;;;;13.73;9.18;;;;;;;2.85;100.00;98548.94;5108235;28;20428;-83
2022/12/07 03:33:53;;;;;;;15.25;9.43;;;;;;;2.90;100.00;98546.16;5086053;28;20078;-83
2022/12/07 03:36:49;;;;;;;14.45;8.75;;;;;;;2.98;100.00;98551.88;5107362;28;20478;-84
2022/12/07 03:39:44;;;;;;;13.23;8.48;;;;;;;2.96;100.00;98556.28;5109893;28;20116;-84
2022/12/07 03:42:31;;;;;;;13.13;9.00;;;;;;;3.00;100.00;98557.00;5110800;28;20040;-83
2022/12/07 03:45:16;;;;;;;14.35;9.65;;;;;;;2.90;100.00;98554.78;5108886;28;20071;-83
2022/12/07 03:48:12;;;;;;;16.63;10.88;;;;;;;2.87;100.00;98560.09;5111373;28;20046;-83
2022/12/07 03:51:09;;;;;;;15.13;9.82;;;;;;;2.85;100.00;98558.44;5115212;28;20054;-84
2022/12/07 03:54:23;;;;;;;13.98;9.63;;;;;;;2.93;100.00;98561.56;5094276;28;20043;-84
2022/12/07 03:57:12;;;;;;;16.20;9.75;;;;;;;3.02;100.00;98562.97;5086637;28;20051;-83
2022/12/07 04:00:00;;;;;;;14.48;10.00;;;;;;;2.99;100.00;98558.72;5109370;28;20032;-85
2022/12/07 04:02:47;;;;;;;15.00;9.65;;;;;;;2.92;100.00;98557.31;5061426;28;20059;-85
2022/12/07 04:05:58;;;;;;;15.75;9.77;;;;;;;2.93;100.00;98559.84;5102944;28;20054;-84
2022/12/07 04:08:42;;;;;;;15.10;10.00;;;;;;;3.00;100.00;98560.44;5105101;28;20040;-83
2022/12/07 04:11:27;;;;;;;16.48;9.75;;;;;;;2.98;100.00;98559.66;5107637;28;20035;-84
2022/12/07 04:14:18;;;;;;;15.43;10.38;;;;;;;3.04;100.00;98556.81;5103292;28;20028;-84
2022/12/07 04:17:03;;;;;;;14.57;10.07;;;;;;;3.05;100.00;98568.00;5111095;28;20040;-84
2022/12/07 04:19:51;;;;;;;16.77;10.18;;;;;;;3.02;100.00;98561.19;5110942;28;20042;-87
2022/12/07 04:22:38;;;;;;;15.65;10.63;;;;;;;3.48;100.00;98567.13;5075492;28;20046;-87
2022/12/07 04:25:24;;;;;;;14.93;9.88;;;;;;;3.31;100.00;98566.91;5106689;28;20028;-87
2022/12/07 04:28:12;;;;;;;13.25;9.10;;;;;;;3.12;100.00;98566.84;5080279;28;20111;-88
2022/12/07 04:30:57;;;;;;;14.27;9.25;;;;;;;3.03;100.00;98565.47;5077329;28;20032;-86
2022/12/07 04:33:44;;;;;;;15.00;9.88;;;;;;;3.08;100.00;98560.94;5107327;28;20048;-88
2022/12/07 04:36:29;;;;;;;15.20;9.30;;;;;;;3.17;100.00;98558.88;5092543;28;20055;-86
2022/12/07 04:39:24;;;;;;;14.55;9.55;;;;;;;3.14;100.00;98565.03;5071487;28;20070;-87
2022/12/07 04:42:10;;;;;;;14.52;9.95;;;;;;;3.06;100.00;98565.34;5090188;28;20082;-87
2022/12/07 04:44:58;;;;;;;13.70;9.10;;;;;;;3.11;100.00;98569.50;5050391;28;20111;-87
2022/12/07 04:48:04;;;;;;;15.15;9.90;;;;;;;3.09;100.00;98569.56;5091855;28;20144;-87
2022/12/07 04:51:10;;;;;;;13.05;9.13;;;;;;;3.05;100.00;98570.59;5094702;28;20054;-87
2022/12/07 04:53:57;;;;;;;13.35;8.73;;;;;;;3.01;100.00;98566.44;5078103;28;20047;-87
2022/12/07 04:56:42;;;;;;;14.18;9.10;;;;;;;3.07;100.00;98564.44;5106254;28;20035;-86
2022/12/07 04:59:28;;;;;;;14.15;9.23;;;;;;;3.06;100.00;98557.59;5093957;28;20044;-87
2022/12/07 05:02:15;;;;;;;13.25;9.32;;;;;;;3.09;100.00;98564.38;5075685;27;20055;-89
2022/12/07 05:05:03;;;;;;;15.48;9.52;;;;;;;3.09;100.00;98566.97;5102482;28;20067;-83
2022/12/07 05:07:51;;;;;;;13.52;9.25;;;;;;;3.06;100.00;98567.94;5064112;28;20192;-90
2022/12/07 05:10:36;;;;;;;12.90;8.85;;;;;;;3.07;100.00;98563.59;5072472;28;20086;-87
2022/12/07 05:13:21;;;;;;;11.93;7.90;;;;;;;3.21;100.00;98570.81;5107350;28;20040;-89
2022/12/07 05:16:08;;;;;;;14.57;9.07;;;;;;;3.24;100.00;98570.69;5104314;28;20040;-87
2022/12/07 05:18:52;;;;;;;14.32;9.43;;;;;;;3.22;100.00;98569.03;5091568;28;20082;-86
2022/12/07 05:21:38;;;;;;;14.15;9.32;;;;;;;3.17;100.00;98572.66;5073915;28;20039;-85
2022/12/07 05:24:23;;;;;;;14.32;9.23;;;;;;;3.18;100.00;98579.53;5083654;28;20059;-86
2022/12/07 05:27:08;;;;;;;12.90;8.52;;;;;;;3.13;100.00;98570.28;5093629;28;20032;-85
2022/12/07 05:29:53;;;;;;;13.05;8.73;;;;;;;3.01;100.00;98572.47;5109906;28;20096;-85
2022/12/07 05:32:37;;;;;;;14.23;9.45;;;;;;;3.02;100.00;98576.72;5097596;28;20112;-83
2022/12/07 05:35:23;;;;;;;13.98;9.35;;;;;;;3.03;100.00;98572.41;5097050;28;20058;-87
2022/12/07 05:38:08;;;;;;;12.40;8.38;;;;;;;3.28;100.00;98576.56;5108012;28;20044;-87
2022/12/07 05:40:53;;;;;;;12.80;8.40;;;;;;;3.14;100.00;98564.19;5075615;28;20054;-86
2022/12/07 05:43:40;;;;;;;13.82;7.88;;;;;;;3.64;100.00;98564.72;5094599;28;20060;-87
2022/12/07 05:46:25;;;;;;;12.55;7.60;;;;;;;3.64;100.00;98578.50;5093981;28;20092;-86
2022/12/07 05:49:09;;;;;;;17.08;8.63;;;;;;;3.38;100.00;98572.69;5078409;28;20538;-84
2022/12/07 05:51:54;;;;;;;12.90;8.25;;;;;;;3.19;100.00;98576.06;5102829;28;20052;-86
2022/12/07 05:54:39;;;;;;;12.85;8.77;;;;;;;3.14;100.00;98570.22;5077924;28;20039;-86
2022/12/07 05:57:28;;;;;;;13.10;7.93;;;;;;;3.45;100.00;98574.13;5092501;28;20487;-88
2022/12/07 06:00:14;;;;;;;12.32;8.00;;;;;;;3.46;100.00;98574.94;5079055;28;20047;-87
2022/12/07 06:02:59;;;;;;;11.90;8.10;;;;;;;3.19;100.00;98572.59;5106846;28;20039;-88
2022/12/07 06:05:46;;;;;;;12.43;8.43;;;;;;;3.10;100.00;98575.59;5094302;28;20390;-86
2022/12/07 06:08:31;;;;;;;12.68;8.07;;;;;;;3.03;100.00;98572.41;5087002;28;20036;-86
2022/12/07 06:14:21;;;;;;;12.98;8.30;;;;;;;2.99;100.00;98574.25;5090866;28;20035;-86
2022/12/07 06:17:06;;;;;;;13.95;8.77;;;;;;;2.94;100.00;98583.94;5107748;28;20088;-89
2022/12/07 06:19:51;;;;;;;13.07;8.02;;;;;;;2.89;100.00;98584.13;5074354;28;20039;-88
2022/12/07 06:22:36;;;;;;;14.05;8.90;;;;;;;2.87;100.00;98580.78;5104562;28;20047;-86
2022/12/07 06:25:23;;;;;;;13.45;7.97;;;;;;;2.88;100.00;98584.19;5095510;28;20039;-86
2022/12/07 06:28:10;;;;;;;14.35;8.02;;;;;;;2.88;100.00;98585.06;5097527;28;20062;-87
2022/12/07 06:30:59;;;;;;;11.60;7.80;;;;;;;2.94;100.00;98577.03;5087238;28;20028;-87
2022/12/07 06:33:45;;;;;;;12.05;8.00;;;;;;;3.00;100.00;98585.47;5088696;28;20089;-84
2022/12/07 06:36:31;;;;;;;11.95;7.63;;;;;;;3.05;100.00;98588.72;5105794;28;20116;-88
2022/12/07 06:39:15;;;;;;;12.63;8.05;;;;;;;2.97;100.00;98596.75;5101110;28;20039;-85
2022/12/07 06:42:00;;;;;;;12.00;8.07;;;;;;;2.99;100.00;98596.72;5088993;28;20048;-87
2022/12/07 06:44:46;;;;;;;12.02;7.82;;;;;;;2.93;100.00;98590.88;5074063;28;20035;-86
2022/12/07 06:47:31;;;;;;;12.77;8.48;;;;;;;2.78;100.00;98594.06;5105694;28;20111;-85
2022/12/07 06:50:15;;;;;;;11.95;8.30;;;;;;;2.78;100.00;98586.31;5094458;28;20130;-88
2022/12/07 06:53:04;;;;;;;11.07;7.45;;;;;;;2.87;100.00;98585.13;5089796;28;20112;-86
2022/12/07 06:55:50;;;;;;;11.48;8.05;;;;;;;2.81;100.00;98589.63;5077979;28;20859;-86
2022/12/07 06:58:35;;;;;;;15.25;7.00;;;;;;;2.91;100.00;98592.69;5087933;28;20047;-85
2022/12/07 07:01:20;;;;;;;12.07;7.50;;;;;;;2.94;100.00;98582.22;5102791;28;20078;-86
2022/12/07 07:04:05;;;;;;;11.50;7.60;;;;;;;2.96;100.00;98595.09;5103004;28;20046;-86
2022/12/07 07:06:50;;;;;;;10.98;7.38;;;;;;;2.91;100.00;98591.84;5104587;28;20101;-85
2022/12/07 07:09:35;;;;;;;10.95;7.28;;;;;;;2.99;100.00;98588.97;5076086;28;20036;-84
2022/12/07 07:12:20;;;;;;;10.77;7.30;;;;;;;2.99;100.00;98599.31;5087717;28;20039;-84
2022/12/07 07:15:06;;;;;;;11.25;7.32;;;;;;;3.03;100.00;98595.69;5075822;28;20040;-85
2022/12/07 07:17:51;;;;;;;11.57;6.57;;;;;;;3.14;100.00;98590.06;5109499;28;20055;-84
2022/12/07 07:20:36;;;;;;;12.27;7.32;;;;;;;3.18;100.00;98596.81;5078683;28;20051;-83
2022/12/07 07:23:21;;;;;;;11.23;6.93;;;;;;;3.21;100.00;98596.69;5070657;28;20044;-83
2022/12/07 07:26:07;;;;;;;9.60;6.63;;;;;;;3.28;100.00;98603.28;5108556;28;20048;-81
2022/12/07 07:28:51;;;;;;;9.77;6.10;;;;;;;3.38;100.00;98595.16;5092048;28;20059;-83
2022/12/07 07:31:37;;;;;;;11.23;7.00;;;;;;;3.50;100.00;98610.19;5086533;28;20042;-84
2022/12/07 07:34:22;;;;;;;12.20;6.63;;;;;;;3.54;100.00;98608.31;5089108;28;20047;-84
2022/12/07 07:37:07;;;;;;;10.52;6.80;;;;;;;3.52;100.00;98610.97;5081493;28;20048;-84
2022/12/07 07:39:53;;;;;;;10.13;6.95;;;;;;;3.56;100.00;98611.66;5077134;28;20543;-89
2022/12/07 07:42:38;;;;;;;9.68;5.88;;;;;;;3.44;100.00;98613.03;5086196;28;20036;-83
2022/12/07 07:45:25;;;;;;;11.60;6.82;;;;;;;3.49;100.00;98616.28;5087709;28;20035;-86
2022/12/07 07:48:22;;;;;;;13.57;6.57;;;;;;;3.92;100.00;98621.38;5100975;28;20063;-83
2022/12/07 07:51:17;;;;;;;15.75;6.63;;;;;;;4.01;100.00;98624.47;5080061;28;20056;-84
2022/12/07 07:54:03;;;;;;;11.00;6.47;;;;;;;3.90;100.00;98618.00;5090689;28;20043;-82
2022/12/07 07:56:47;;;;;;;10.13;6.35;;;;;;;3.74;100.00;98604.03;5103789;28;20479;-87
2022/12/07 07:59:33;;;;;;;11.02;6.63;;;;;;;3.67;100.00;98604.28;5109420;27;20479;-83
2022/12/07 08:02:19;;;;;;;10.70;6.80;;;;;;;3.55;100.00;98605.66;5108659;28;20600;-86
2022/12/07 08:05:05;;;;;;;11.23;6.30;;;;;;;3.68;100.00;98621.53;5094434;28;20126;-85
2022/12/07 08:07:51;;;;;;;10.55;6.55;;;;;;;3.74;100.00;98609.22;5060134;28;20089;-85
2022/12/07 08:10:37;;;;;;;10.10;6.45;;;;;;;3.75;100.00;98619.53;5111399;28;20032;-84
2022/12/07 08:13:21;;;;;;;10.30;6.00;;;;;;;3.74;100.00;98615.22;5080481;28;20074;-82
2022/12/07 08:16:09;;;;;;;11.35;6.75;;;;;;;3.68;100.00;98624.13;5088080;28;20048;-82
2022/12/07 08:18:54;;;;;;;9.55;6.35;;;;;;;3.71;100.00;98625.72;5101426;28;20047;-85
2022/12/07 08:21:39;;;;;;;11.65;6.22;;;;;;;3.77;100.00;98628.06;5091048;28;20054;-83
2022/12/07 08:24:24;;;;;;;9.90;5.57;;;;;;;3.85;100.00;98624.31;5108069;28;20040;-84
2022/12/07 08:27:09;;;;;;;9.30;6.03;;;;;;;3.68;100.00;98626.72;5080533;28;20101;-82
2022/12/07 08:29:54;;;;;;;9.18;6.30;;;;;;;3.68;100.00;98628.44;5108245;28;20119;-83
2022/12/07 08:32:38;;;;;;;10.20;6.78;;;;;;;3.72;100.00;98634.34;5109576;28;20455;-84
2022/12/07 08:35:24;;;;;;;8.85;5.50;;;;;;;3.81;100.00;98639.13;5104905;28;20095;-83
2022/12/07 08:38:09;;;;;;;9.73;5.63;;;;;;;3.93;100.00;98636.00;5108610;28;20142;-84
2022/12/07 08:40:55;;;;;;;10.10;5.55;;;;;;;3.88;100.00;98629.34;5080944;28;20086;-82
2022/12/07 08:43:40;;;;;;;9.55;6.30;;;;;;;3.88;100.00;98618.97;5080537;28;20495;-84
2022/12/07 08:46:38;;;;;;;9.75;6.50;;;;;;;3.86;100.00;98613.00;5090602;28;20053;-82
2022/12/07 08:49:37;;;;;;;9.27;5.57;;;;;;;3.86;100.00;98615.59;5091198;28;20093;-83
2022/12/07 08:52:22;;;;;;;10.10;5.63;;;;;;;4.24;100.00;98631.25;5107706;28;20748;-79
2022/12/07 08:55:11;;;;;;;10.00;5.97;;;;;;;4.68;100.00;98631.88;5090674;28;20059;-82
2022/12/07 08:57:57;;;;;;;9.93;5.72;;;;;;;4.72;100.00;98638.59;5086840;28;20112;-82
2022/12/07 09:00:42;;;;;;;8.85;5.82;;;;;;;4.58;100.00;98636.66;5099292;28;20047;-83
2022/12/07 09:03:27;;;;;;;10.95;5.80;;;;;;;4.47;100.00;98638.91;5107806;28;20248;-83
2022/12/07 09:06:13;;;;;;;11.40;6.13;;;;;;;4.44;100.00;98645.91;5103276;28;20050;-83
2022/12/07 09:09:01;;;;;;;10.68;6.57;;;;;;;4.38;100.00;98645.31;5106174;28;20038;-84
2022/12/07 09:11:46;;;;;;;9.60;6.75;;;;;;;4.47;100.00;98638.91;5088915;28;20127;-85
2022/12/07 09:14:30;;;;;;;11.60;7.00;;;;;;;4.55;100.00;98640.22;5103731;28;20055;-83
2022/12/07 09:17:16;;;;;;;12.32;7.05;;;;;;;4.34;100.00;98625.63;5105644;28;20131;-83
2022/12/07 09:20:00;;;;;;;9.80;5.78;;;;;;;4.24;100.00;98631.25;5102999;28;20567;-85
2022/12/07 09:22:45;;;;;;;7.82;5.00;;;;;;;4.07;100.00;98630.22;5104583;28;20044;-81
2022/12/07 09:25:30;;;;;;;8.10;5.00;;;;;;;4.17;100.00;98625.50;5059517;28;20089;-83
2022/12/07 09:28:15;;;;;;;7.75;5.28;;;;;;;4.29;100.00;98631.03;5102974;28;20043;-82
2022/12/07 09:30:59;;;;;;;10.48;5.65;;;;;;;4.25;100.00;98630.31;5102443;27;20127;-82
2022/12/07 09:33:44;;;;;;;9.18;5.80;;;;;;;4.31;100.00;98627.44;5097949;28;20035;-83
2022/12/07 09:36:29;;;;;;;10.48;5.78;;;;;;;4.40;100.00;98618.44;5088144;28;20044;-83
2022/12/07 09:39:14;;;;;;;9.15;5.28;;;;;;;4.42;100.00;98614.00;5068397;28;20067;-84
2022/12/07 09:42:02;;;;;;;9.00;5.53;;;;;;;4.28;100.00;98609.44;5087068;28;20040;-83
2022/12/07 09:44:47;;;;;;;9.07;5.80;;;;;;;4.32;100.00;98613.56;5101067;28;20100;-83
2022/12/07 09:47:33;;;;;;;7.43;4.55;;;;;;;4.61;100.00;98600.19;5084650;28;20061;-84
2022/12/07 09:50:25;;;;;;;9.13;5.65;;;;;;;4.61;100.00;98597.59;5105434;28;20039;-83
2022/12/07 09:53:25;;;;;;;6.78;4.85;;;;;;;4.65;100.00;98591.31;5105303;28;20050;-82
2022/12/07 09:56:17;;;;;;;6.88;4.50;;;;;;;4.67;100.00;98584.31;5104017;28;20123;-83
2022/12/07 09:59:03;;;;;;;6.13;3.70;;;;;;;4.96;99.41;98581.22;5102704;28;20055;-84
2022/12/07 10:01:50;;;;;;;6.35;4.10;;;;;;;5.91;95.32;98584.34;5089936;28;20039;-83
2022/12/07 10:04:37;;;;;;;6.63;4.22;;;;;;;6.59;89.19;98580.84;5106074;28;20043;-78
2022/12/07 10:07:22;;;;;;;6.32;3.60;;;;;;;7.38;86.10;98578.16;5108563;28;20043;-83
2022/12/07 10:10:17;;;;;;;5.55;3.85;;;;;;;7.78;82.09;98585.41;5103560;28;20035;-82
2022/12/07 10:13:06;;;;;;;5.25;3.45;;;;;;;7.24;79.05;98574.59;5104231;28;20039;-82
2022/12/07 10:15:56;;;;;;;4.55;3.15;;;;;;;7.17;82.19;98565.44;5084487;28;20048;-82
2022/12/07 10:18:42;;;;;;;4.50;2.97;;;;;;;7.09;76.30;98571.09;5075952;28;20063;-83
2022/12/07 10:21:26;;;;;;;4.50;2.90;;;;;;;8.22;75.96;98570.59;5103014;28;20044;-81
2022/12/07 10:24:11;;;;;;;4.03;2.20;;;;;;;8.77;69.72;98567.22;5073673;28;20294;-86
2022/12/07 10:26:56;;;;;;;2.92;2.20;;;;;;;9.36;64.44;98567.78;5088565;28;20059;-82
2022/12/07 10:29:49;;;;;;;3.63;2.47;;;;;;;9.55;66.54;98567.38;5109383;28;20039;-84
2022/12/07 10:32:35;;;;;;;3.47;2.10;;;;;;;10.63;64.56;98562.63;5089407;28;20590;-82
2022/12/07 10:35:29;;;;;;;3.55;2.60;;;;;;;10.20;64.30;98558.66;5107267;28;20040;-81
2022/12/07 10:38:17;;;;;;;3.60;1.88;;;;;;;10.47;62.44;98560.28;5106154;28;20460;-82
2022/12/07 10:41:09;;;;;;;3.63;1.98;;;;;;;10.70;63.29;98557.81;5089484;28;20160;-82
2022/12/07 10:43:57;;;;;;;2.70;1.92;;;;;;;10.79;63.45;98558.91;5108620;28;20741;-85
2022/12/07 10:47:01;;;;;;;3.05;2.13;;;;;;;10.75;64.59;98558.31;5105672;28;20436;-83
2022/12/07 10:50:04;;;;;;;2.67;1.90;;;;;;;10.54;67.32;98555.44;5105651;28;20127;-85
2022/12/07 10:53:19;;;;;;;2.78;2.20;;;;;;;9.65;56.66;98553.66;5087224;28;20039;-76
2022/12/07 10:56:24;;;;;;;3.85;2.40;;;;;;;9.38;56.87;98547.63;5105354;28;20039;-76
2022/12/07 10:59:44;;;;;;;3.53;2.40;;;;;;;9.38;63.12;98542.38;5088825;28;20074;-81
2022/12/07 11:02:35;;;;;;;3.20;1.85;;;;;;;11.15;70.75;98545.81;5099735;28;20054;-85
2022/12/07 11:05:48;;;;;;;3.15;2.10;;;;;;;11.62;62.37;98545.78;5093986;28;20044;-83
2022/12/07 11:08:56;;;;;;;3.70;2.10;;;;;;;11.61;62.92;98535.41;5106805;28;20104;-85
2022/12/07 11:12:06;;;;;;;2.83;1.83;;;;;;;11.43;55.52;98538.50;5072916;28;20065;-92
2022/12/07 11:15:21;;;;;;;6.75;2.00;;;;;;;11.48;54.99;98536.38;5072499;28;20083;-82
2022/12/07 11:18:19;;;;;;;3.33;1.92;;;;;;;11.59;59.79;98535.53;5115320;28;20067;-83
2022/12/07 11:21:22;;;;;;;3.30;2.17;;;;;;;11.83;58.33;98530.19;5117215;28;20048;-83
2022/12/07 11:24:16;;;;;;;2.47;1.85;;;;;;;11.28;59.89;98525.59;5089281;28;20123;-85
2022/12/07 11:27:11;;;;;;;3.92;2.00;;;;;;;11.82;59.31;98530.31;5076131;28;20351;-84
2022/12/07 11:30:47;;;;;;;3.35;1.58;;;;;;;11.86;55.80;98526.50;5092581;28;20051;-90
2022/12/07 11:34:08;;;;;;;2.88;1.73;;;;;;;12.48;57.65;98528.72;5099438;28;20036;-86
2022/12/07 11:36:56;;;;;;;2.45;1.52;;;;;;;12.41;54.39;98524.91;5094412;28;20043;-88
2022/12/07 11:39:49;;;;;;;3.83;1.70;;;;;;;11.75;51.73;98516.81;5093126;28;20043;-86
2022/12/07 11:42:40;;;;;;;3.08;1.60;;;;;;;9.98;55.88;98519.13;5103387;28;20040;-88
2022/12/07 11:45:33;;;;;;;2.55;1.90;;;;;;;9.67;62.22;98523.88;5084075;28;20466;-88
2022/12/07 11:48:29;;;;;;;3.05;1.75;;;;;;;9.92;59.57;98522.16;5089928;28;20040;-86
2022/12/07 11:51:16;;;;;;;2.40;1.90;;;;;;;9.09;58.45;98514.63;5102725;28;20051;-87
2022/12/07 11:54:28;;;;;;;2.70;1.70;;;;;;;8.37;65.83;98528.78;5097129;28;20136;-87
2022/12/07 11:57:20;;;;;;;2.17;1.60;;;;;;;7.87;59.78;98529.22;5094867;28;20036;-87
2022/12/07 12:00:12;;;;;;;2.97;1.60;;;;;;;7.58;61.28;98529.22;5104340;28;20121;-87
2022/12/07 12:03:03;;;;;;;4.20;1.75;;;;;;;7.58;61.74;98530.06;5096495;28;20039;-87
2022/12/07 12:05:49;;;;;;;2.25;1.55;;;;;;;7.34;64.05;98525.41;5087454;28;20139;-87
2022/12/07 12:08:42;;;;;;;2.58;1.60;;;;;;;7.18;66.45;98524.59;5077038;28;20148;-87
2022/12/07 12:11:52;;;;;;;2.72;1.75;;;;;;;7.31;67.28;98532.53;5082981;28;20047;-86
2022/12/07 12:14:49;;;;;;;3.15;1.88;;;;;;;6.94;64.28;98522.47;5086931;28;20491;-86
2022/12/07 12:17:42;;;;;;;2.78;1.95;;;;;;;6.45;67.34;98532.97;5079761;28;20088;-87
2022/12/07 12:21:10;;;;;;;2.90;1.70;;;;;;;6.61;67.62;98519.13;5094041;28;20208;-87
2022/12/07 12:24:03;;;;;;;2.75;1.70;;;;;;;6.59;73.54;98524.41;5092556;28;20535;-88
2022/12/07 12:26:52;;;;;;;3.13;1.55;;;;;;;6.71;70.76;98522.88;5043599;28;20142;-86
2022/12/07 12:29:40;;;;;;;3.33;2.20;;;;;;;6.63;68.60;98525.91;5077487;27;20516;-86
2022/12/07 12:32:55;;;;;;;6.63;1.67;;;;;;;6.55;70.54;98525.50;5108609;28;20449;-87
2022/12/07 12:35:40;;;;;;;3.72;2.15;;;;;;;6.43;69.91;98523.59;5029875;28;20053;-87
2022/12/07 12:38:33;;;;;;;4.55;2.97;;;;;;;6.26;72.48;98518.38;5045892;28;20090;-81
2022/12/07 12:41:35;;;;;;;5.97;3.28;;;;;;;6.12;73.04;98519.13;5044952;28;20485;-82
2022/12/07 12:44:22;;;;;;;4.35;2.55;;;;;;;5.97;70.30;98527.72;5043741;28;20725;-81
2022/12/07 12:47:55;;;;;;;3.80;2.25;;;;;;;6.19;71.79;98530.03;5046022;28;20049;-79
2022/12/07 12:51:32;;;;;;;4.15;2.30;;;;;;;7.63;72.20;98521.97;5036204;28;20519;-89
2022/12/07 12:54:17;;;;;;;3.45;1.83;;;;;;;8.74;68.81;98518.63;5008323;28;20057;-91
2022/12/07 12:57:27;;;;;;;2.83;1.63;;;;;;;8.33;57.51;98517.69;5016293;28;20077;-90
2022/12/07 13:00:22;;;;;;;3.42;1.65;;;;;;;8.26;63.33;98526.84;5035627;28;20049;-90
2022/12/07 13:03:26;;;;;;;2.25;1.23;;;;;;;8.42;56.33;98526.69;5032933;28;20053;-91
2022/12/07 13:06:43;;;;;;;1.90;1.42;;;;;;;9.42;65.42;98530.75;5031063;28;20053;-90
2022/12/07 13:09:36;;;;;;;2.88;1.98;;;;;;;10.15;62.83;98516.25;5037075;28;20417;-89
2022/12/07 13:13:22;;;;;;;2.42;1.48;;;;;;;10.34;54.69;98519.25;5068844;28;20474;-90
2022/12/07 13:17:02;;;;;;;2.72;1.60;;;;;;;10.21;51.52;98527.13;5110725;28;20044;-90
2022/12/07 13:24:45;;;;;;;;;;;;;;;;;;;;;
2022/12/07 13:55:28;;;;;;;;;;;;;;;;;;;;;
2022/12/07 13:59:43;;;;;;;;;;;;;;;;;;;;;
2022/12/07 14:03:30;;;;;;;3.05;1.50;;;;;;;11.33;54.82;98526.09;5044849;28;19920;-93